createdAt,value
2017-07-16T00:00:16.896Z,101488.63
2017-07-16T00:02:43.366Z,101480.87
2017-07-16T00:05:09.860Z,101487.28
2017-07-16T00:07:36.373Z,101485.90
2017-07-16T00:10:04.271Z,101488.71
2017-07-16T00:12:31.239Z,101485.67
2017-07-16T00:14:57.737Z,101495.75
2017-07-16T00:17:24.222Z,101493.74
2017-07-16T00:19:51.171Z,101497.72
2017-07-16T00:22:17.660Z,101501.91
2017-07-16T00:24:44.166Z,101496.72
2017-07-16T00:27:10.657Z,101494.89
2017-07-16T00:29:37.101Z,101496.61
2017-07-16T00:32:03.585Z,101487.95
2017-07-16T00:34:30.052Z,101488.39
2017-07-16T00:36:56.518Z,101499.36
2017-07-16T00:39:22.977Z,101501.42
2017-07-16T00:41:49.604Z,101501.81
2017-07-16T00:44:16.422Z,101493.24
2017-07-16T00:46:42.896Z,101498.49
2017-07-16T00:49:09.735Z,101497.03
2017-07-16T00:51:36.229Z,101497.41
2017-07-16T00:54:02.711Z,101485.91
2017-07-16T00:56:29.209Z,101493.84
2017-07-16T00:58:55.688Z,101485.69
2017-07-16T01:01:22.213Z,101488.70
2017-07-16T01:03:48.664Z,101494.79
2017-07-16T01:06:15.121Z,101487.69
2017-07-16T01:08:41.592Z,101491.69
2017-07-16T01:11:08.288Z,101483.96
2017-07-16T01:13:34.827Z,101487.28
2017-07-16T01:16:01.514Z,101486.09
2017-07-16T01:18:28.025Z,101492.10
2017-07-16T01:20:54.506Z,101483.72
2017-07-16T01:23:21.006Z,101501.02
2017-07-16T01:25:47.536Z,101496.66
2017-07-16T01:28:13.991Z,101494.36
2017-07-16T01:30:40.500Z,101499.53
2017-07-16T01:33:07.026Z,101493.75
2017-07-16T01:35:33.859Z,101488.31
2017-07-16T01:38:00.405Z,101490.02
2017-07-16T01:40:26.883Z,101489.95
2017-07-16T01:42:53.770Z,101488.92
2017-07-16T01:45:20.323Z,101494.02
2017-07-16T01:47:47.015Z,101498.45
2017-07-16T01:50:13.570Z,101501.45
2017-07-16T01:52:40.072Z,101507.20
2017-07-16T01:55:06.605Z,101504.28
2017-07-16T01:57:33.150Z,101506.03
2017-07-16T01:59:59.627Z,101498.61
2017-07-16T02:02:26.131Z,101501.05
2017-07-16T02:04:52.600Z,101498.20
2017-07-16T02:07:19.051Z,101494.49
2017-07-16T02:09:45.558Z,101487.15
2017-07-16T02:12:12.058Z,101492.75
2017-07-16T02:14:38.658Z,101491.64
2017-07-16T02:17:05.161Z,101479.83
2017-07-16T02:19:31.659Z,101481.15
2017-07-16T02:21:58.145Z,101485.86
2017-07-16T02:24:24.652Z,101487.91
2017-07-16T02:26:51.319Z,101486.38
2017-07-16T02:29:17.782Z,101491.87
2017-07-16T02:31:44.297Z,101488.97
2017-07-16T02:34:10.792Z,101484.98
2017-07-16T02:36:37.264Z,101486.54
2017-07-16T02:39:03.851Z,101489.12
2017-07-16T02:41:30.310Z,101491.50
2017-07-16T02:43:56.765Z,101499.09
2017-07-16T02:46:23.232Z,101506.76
2017-07-16T02:48:49.750Z,101513.31
2017-07-16T02:51:16.297Z,101514.69
2017-07-16T02:53:42.843Z,101504.78
2017-07-16T02:56:09.352Z,101494.78
2017-07-16T02:58:35.884Z,101493.23
2017-07-16T03:01:02.410Z,101500.80
2017-07-16T03:03:28.942Z,101492.50
2017-07-16T03:05:55.475Z,101492.09
2017-07-16T03:08:21.953Z,101494.87
2017-07-16T03:10:48.487Z,101495.66
2017-07-16T03:13:14.963Z,101496.77
2017-07-16T03:15:41.481Z,101497.81
2017-07-16T03:18:08.034Z,101498.47
2017-07-16T03:20:34.553Z,101499.80
2017-07-16T03:23:01.033Z,101495.09
2017-07-16T03:25:36.459Z,101490.71
2017-07-16T03:28:02.953Z,101495.16
2017-07-16T03:30:29.509Z,101494.14
2017-07-16T03:32:56.059Z,101506.48
2017-07-16T03:35:22.562Z,101504.05
2017-07-16T03:37:49.099Z,101511.63
2017-07-16T03:40:15.646Z,101511.98
2017-07-16T03:42:42.151Z,101497.55
2017-07-16T03:45:08.649Z,101500.39
2017-07-16T03:47:35.128Z,101493.63
2017-07-16T03:50:01.668Z,101489.51
2017-07-16T03:52:28.161Z,101491.23
2017-07-16T03:54:54.621Z,101486.95
2017-07-16T03:57:21.099Z,101486.06
2017-07-16T03:59:47.583Z,101483.23
2017-07-16T04:02:14.046Z,101485.38
2017-07-16T04:04:40.560Z,101483.87
2017-07-16T04:07:07.014Z,101487.91
2017-07-16T04:09:33.486Z,101497.50
2017-07-16T04:12:00.081Z,101490.84
2017-07-16T04:14:26.555Z,101485.42
2017-07-16T04:16:53.021Z,101490.62
2017-07-16T04:19:19.504Z,101491.50
2017-07-16T04:21:45.969Z,101484.82
2017-07-16T04:24:12.457Z,101488.22
2017-07-16T04:26:38.929Z,101484.02
2017-07-16T04:29:05.431Z,101493.47
2017-07-16T04:31:31.877Z,101488.82
2017-07-16T04:33:58.332Z,101488.55
2017-07-16T04:36:24.802Z,101494.66
2017-07-16T04:38:51.198Z,101500.81
2017-07-16T04:41:17.563Z,101494.03
2017-07-16T04:43:43.962Z,101499.09
2017-07-16T04:46:10.322Z,101502.96
2017-07-16T04:48:36.663Z,101498.60
2017-07-16T04:51:03.022Z,101507.55
2017-07-16T04:53:29.379Z,101501.25
2017-07-16T04:55:55.765Z,101508.44
2017-07-16T04:58:22.118Z,101503.53
2017-07-16T05:00:48.449Z,101513.17
2017-07-16T05:03:14.817Z,101517.78
2017-07-16T05:05:41.197Z,101517.20
2017-07-16T05:08:07.563Z,101517.11
2017-07-16T05:10:33.926Z,101519.11
2017-07-16T05:13:00.273Z,101522.30
2017-07-16T05:15:26.647Z,101520.41
2017-07-16T05:17:52.999Z,101523.80
2017-07-16T05:20:19.362Z,101519.47
2017-07-16T05:22:45.718Z,101512.14
2017-07-16T05:25:12.121Z,101518.04
2017-07-16T05:27:38.517Z,101518.11
2017-07-16T05:30:04.914Z,101528.28
2017-07-16T05:32:31.279Z,101532.54
2017-07-16T05:34:57.649Z,101524.03
2017-07-16T05:37:24.016Z,101520.86
2017-07-16T05:39:50.379Z,101528.98
2017-07-16T05:42:16.743Z,101535.80
2017-07-16T05:44:43.106Z,101531.81
2017-07-16T05:47:09.471Z,101529.39
2017-07-16T05:49:35.819Z,101524.47
2017-07-16T05:52:02.516Z,101524.95
2017-07-16T05:54:28.875Z,101522.33
2017-07-16T05:56:55.276Z,101528.87
2017-07-16T05:59:21.654Z,101531.45
2017-07-16T06:01:48.009Z,101532.72
2017-07-16T06:04:14.389Z,101534.87
2017-07-16T06:06:40.753Z,101534.06
2017-07-16T06:09:07.509Z,101534.11
2017-07-16T06:11:33.906Z,101533.21
2017-07-16T06:14:00.279Z,101530.16
2017-07-16T06:16:26.628Z,101536.30
2017-07-16T06:18:53.024Z,101538.14
2017-07-16T06:21:19.443Z,101539.78
2017-07-16T06:23:45.818Z,101541.76
2017-07-16T06:26:12.252Z,101529.50
2017-07-16T06:28:38.627Z,101534.59
2017-07-16T06:31:04.993Z,101531.38
2017-07-16T06:33:31.356Z,101521.94
2017-07-16T06:35:57.722Z,101526.88
2017-07-16T06:38:24.111Z,101533.12
2017-07-16T06:40:50.527Z,101537.37
2017-07-16T06:43:16.916Z,101536.75
2017-07-16T06:45:43.287Z,101543.69
2017-07-16T06:48:09.685Z,101549.44
2017-07-16T06:50:36.060Z,101545.60
2017-07-16T06:53:02.483Z,101537.64
2017-07-16T06:55:28.895Z,101546.54
2017-07-16T06:57:55.276Z,101544.31
2017-07-16T07:00:21.682Z,101546.01
2017-07-16T07:02:48.032Z,101549.45
2017-07-16T07:05:14.425Z,101550.44
2017-07-16T07:07:40.795Z,101551.00
2017-07-16T07:10:07.241Z,101556.70
2017-07-16T07:12:33.643Z,101557.16
2017-07-16T07:14:59.991Z,101557.50
2017-07-16T07:17:26.338Z,101556.13
2017-07-16T07:19:52.722Z,101554.94
2017-07-16T07:22:19.137Z,101561.52
2017-07-16T07:24:45.511Z,101560.29
2017-07-16T07:27:11.843Z,101564.10
2017-07-16T07:29:38.215Z,101564.34
2017-07-16T07:32:04.572Z,101568.78
2017-07-16T07:34:30.953Z,101571.08
2017-07-16T07:36:57.328Z,101565.44
2017-07-16T07:39:23.756Z,101568.77
2017-07-16T07:41:50.121Z,101562.84
2017-07-16T07:44:16.499Z,101568.23
2017-07-16T07:46:42.840Z,101565.27
2017-07-16T07:49:09.240Z,101561.03
2017-07-16T07:51:35.705Z,101570.26
2017-07-16T07:54:02.103Z,101567.41
2017-07-16T07:56:28.486Z,101570.16
2017-07-16T07:58:54.844Z,101563.98
2017-07-16T08:01:21.230Z,101560.83
2017-07-16T08:03:47.585Z,101559.61
2017-07-16T08:06:13.989Z,101566.45
2017-07-16T08:08:40.352Z,101555.13
2017-07-16T08:11:06.708Z,101553.27
2017-07-16T08:13:33.099Z,101546.30
2017-07-16T08:15:59.451Z,101544.59
2017-07-16T08:18:25.814Z,101543.22
2017-07-16T08:20:52.202Z,101538.93
2017-07-16T08:23:18.602Z,101540.02
2017-07-16T08:25:44.960Z,101541.22
2017-07-16T08:28:11.335Z,101544.16
2017-07-16T08:30:37.712Z,101540.52
2017-07-16T08:33:04.061Z,101536.01
2017-07-16T08:35:30.405Z,101543.06
2017-07-16T08:37:56.783Z,101544.28
2017-07-16T08:40:23.151Z,101542.72
2017-07-16T08:42:49.552Z,101548.09
2017-07-16T08:45:15.916Z,101541.81
2017-07-16T08:47:42.295Z,101542.59
2017-07-16T08:50:08.658Z,101555.33
2017-07-16T08:52:35.087Z,101556.06
2017-07-16T08:55:01.479Z,101556.27
2017-07-16T08:57:27.859Z,101557.78
2017-07-16T08:59:54.266Z,101548.67
2017-07-16T09:02:20.622Z,101557.92
2017-07-16T09:04:46.996Z,101553.03
2017-07-16T09:07:13.360Z,101553.02
2017-07-16T09:09:39.724Z,101549.64
2017-07-16T09:12:06.132Z,101552.77
2017-07-16T09:14:32.487Z,101556.58
2017-07-16T09:16:58.901Z,101560.52
2017-07-16T09:19:25.327Z,101560.58
2017-07-16T09:21:51.693Z,101559.59
2017-07-16T09:24:18.127Z,101549.84
2017-07-16T09:26:44.486Z,101557.92
2017-07-16T09:29:10.841Z,101560.05
2017-07-16T09:31:37.215Z,101555.09
2017-07-16T09:34:03.574Z,101556.98
2017-07-16T09:36:29.985Z,101559.17
2017-07-16T09:38:56.379Z,101560.60
2017-07-16T09:41:22.771Z,101561.94
2017-07-16T09:43:49.137Z,101557.82
2017-07-16T09:46:15.527Z,101550.12
2017-07-16T09:48:41.900Z,101556.45
2017-07-16T09:51:08.275Z,101549.70
2017-07-16T09:53:34.696Z,101552.39
2017-07-16T09:56:01.096Z,101548.97
2017-07-16T09:58:27.470Z,101550.31
2017-07-16T10:00:53.864Z,101555.84
2017-07-16T10:03:20.246Z,101557.88
2017-07-16T10:05:46.600Z,101553.98
2017-07-16T10:08:12.954Z,101554.05
2017-07-16T10:10:39.344Z,101553.01
2017-07-16T10:13:11.623Z,101549.68
2017-07-16T10:15:37.986Z,101543.09
2017-07-16T10:18:04.357Z,101547.86
2017-07-16T10:20:30.738Z,101547.05
2017-07-16T10:22:57.129Z,101546.11
2017-07-16T10:25:23.488Z,101542.64
2017-07-16T10:27:49.863Z,101545.67
2017-07-16T10:30:16.225Z,101543.06
2017-07-16T10:32:42.614Z,101545.79
2017-07-16T10:35:08.976Z,101553.28
2017-07-16T10:37:35.339Z,101548.39
2017-07-16T10:40:01.713Z,101543.82
2017-07-16T10:42:28.101Z,101544.11
2017-07-16T10:44:54.484Z,101540.93
2017-07-16T10:47:20.834Z,101538.30
2017-07-16T10:49:47.173Z,101536.95
2017-07-16T10:52:13.536Z,101539.34
2017-07-16T10:54:39.946Z,101543.53
2017-07-16T10:57:06.315Z,101536.72
2017-07-16T10:59:32.768Z,101531.05
2017-07-16T11:01:59.179Z,101531.98
2017-07-16T11:04:25.556Z,101532.17
2017-07-16T11:06:51.902Z,101534.41
2017-07-16T11:09:18.289Z,101535.75
2017-07-16T11:11:44.638Z,101536.79
2017-07-16T11:14:11.029Z,101538.26
2017-07-16T11:16:37.392Z,101534.81
2017-07-16T11:19:03.807Z,101531.80
2017-07-16T11:21:30.177Z,101533.02
2017-07-16T11:23:56.551Z,101531.83
2017-07-16T11:26:22.939Z,101528.78
2017-07-16T11:28:49.290Z,101524.94
2017-07-16T11:31:15.707Z,101524.44
2017-07-16T11:33:42.089Z,101520.27
2017-07-16T11:36:08.476Z,101527.28
2017-07-16T11:38:34.847Z,101519.48
2017-07-16T11:41:01.192Z,101526.55
2017-07-16T11:43:27.593Z,101524.65
2017-07-16T11:45:53.967Z,101525.75
2017-07-16T11:48:20.352Z,101520.97
2017-07-16T11:50:46.735Z,101516.09
2017-07-16T11:53:13.092Z,101517.28
2017-07-16T11:55:39.460Z,101510.44
2017-07-16T11:58:05.822Z,101521.02
2017-07-16T12:00:32.212Z,101513.05
2017-07-16T12:02:58.584Z,101515.00
2017-07-16T12:05:24.944Z,101523.95
2017-07-16T12:07:51.322Z,101516.24
2017-07-16T12:10:17.707Z,101515.47
2017-07-16T12:12:44.196Z,101511.84
2017-07-16T12:15:10.631Z,101507.03
2017-07-16T12:17:37.067Z,101517.33
2017-07-16T12:20:03.452Z,101507.11
2017-07-16T12:22:29.850Z,101511.37
2017-07-16T12:24:56.239Z,101506.56
2017-07-16T12:27:22.642Z,101500.36
2017-07-16T12:29:49.131Z,101498.98
2017-07-16T12:32:15.531Z,101502.77
2017-07-16T12:34:41.926Z,101492.77
2017-07-16T12:37:08.423Z,101497.92
2017-07-16T12:39:34.847Z,101504.55
2017-07-16T12:42:01.248Z,101496.76
2017-07-16T12:44:27.611Z,101495.77
2017-07-16T12:46:54.151Z,101496.89
2017-07-16T12:49:20.517Z,101492.80
2017-07-16T12:51:46.956Z,101493.23
2017-07-16T12:54:13.341Z,101490.45
2017-07-16T12:56:39.724Z,101480.08
2017-07-16T12:59:06.099Z,101480.35
2017-07-16T13:01:32.488Z,101483.80
2017-07-16T13:03:59.114Z,101475.38
2017-07-16T13:06:25.533Z,101478.75
2017-07-16T13:08:51.898Z,101478.02
2017-07-16T13:11:18.318Z,101477.84
2017-07-16T13:13:44.680Z,101479.00
2017-07-16T13:16:11.080Z,101476.30
2017-07-16T13:18:37.450Z,101476.03
2017-07-16T13:21:03.830Z,101475.98
2017-07-16T13:23:30.186Z,101473.61
2017-07-16T13:25:56.543Z,101471.94
2017-07-16T13:28:22.915Z,101474.07
2017-07-16T13:30:49.294Z,101470.17
2017-07-16T13:33:15.691Z,101469.53
2017-07-16T13:35:42.468Z,101465.77
2017-07-16T13:38:08.910Z,101460.81
2017-07-16T13:40:35.798Z,101457.84
2017-07-16T13:43:02.203Z,101461.30
2017-07-16T13:45:28.654Z,101454.98
2017-07-16T13:47:55.050Z,101464.85
2017-07-16T13:50:21.481Z,101461.30
2017-07-16T13:52:48.396Z,101465.08
2017-07-16T13:55:14.803Z,101463.50
2017-07-16T13:57:41.216Z,101459.45
2017-07-16T14:00:07.582Z,101462.50
2017-07-16T14:02:34.003Z,101457.29
2017-07-16T14:05:00.380Z,101471.09
2017-07-16T14:07:27.466Z,101473.09
2017-07-16T14:09:53.867Z,101467.53
2017-07-16T14:12:20.237Z,101469.25
2017-07-16T14:14:46.610Z,101470.73
2017-07-16T14:17:13.003Z,101473.98
2017-07-16T14:19:39.380Z,101470.57
2017-07-16T14:22:05.846Z,101464.98
2017-07-16T14:24:32.233Z,101468.04
2017-07-16T14:26:58.621Z,101469.90
2017-07-16T14:29:25.033Z,101476.52
2017-07-16T14:31:51.388Z,101472.18
2017-07-16T14:34:17.733Z,101466.20
2017-07-16T14:36:44.079Z,101476.31
2017-07-16T14:39:10.472Z,101467.14
2017-07-16T14:41:36.866Z,101475.84
2017-07-16T14:44:04.890Z,101473.20
2017-07-16T14:46:32.320Z,101470.80
2017-07-16T14:48:58.736Z,101484.30
2017-07-16T14:51:25.135Z,101475.80
2017-07-16T14:53:51.517Z,101478.63
2017-07-16T14:56:19.310Z,101478.23
2017-07-16T14:58:45.819Z,101482.15
2017-07-16T15:01:12.295Z,101480.54
2017-07-16T15:03:38.822Z,101474.56
2017-07-16T15:06:05.278Z,101475.78
2017-07-16T15:08:31.703Z,101477.00
2017-07-16T15:10:58.149Z,101480.28
2017-07-16T15:13:24.589Z,101470.67
2017-07-16T15:15:51.035Z,101472.93
2017-07-16T15:18:17.424Z,101470.16
2017-07-16T15:20:44.372Z,101466.45
2017-07-16T15:23:10.877Z,101466.53
2017-07-16T15:25:37.283Z,101471.98
2017-07-16T15:28:03.662Z,101469.84
2017-07-16T15:30:30.046Z,101467.39
2017-07-16T15:32:56.430Z,101467.02
2017-07-16T15:35:22.921Z,101467.51
2017-07-16T15:37:49.313Z,101470.20
2017-07-16T15:40:15.701Z,101471.69
2017-07-16T15:42:42.097Z,101462.19
2017-07-16T15:45:08.469Z,101460.84
2017-07-16T15:47:34.867Z,101466.44
2017-07-16T15:50:01.316Z,101462.07
2017-07-16T15:52:27.688Z,101465.52
2017-07-16T15:54:54.086Z,101459.36
2017-07-16T15:57:20.432Z,101447.28
2017-07-16T15:59:46.796Z,101451.69
2017-07-16T16:02:13.142Z,101450.55
2017-07-16T16:04:39.537Z,101448.23
2017-07-16T16:07:05.922Z,101449.51
2017-07-16T16:09:32.373Z,101452.06
2017-07-16T16:11:59.616Z,101452.06
2017-07-16T16:14:26.004Z,101442.76
2017-07-16T16:16:52.410Z,101443.25
2017-07-16T16:19:18.756Z,101445.69
2017-07-16T16:21:45.173Z,101445.89
2017-07-16T16:24:11.567Z,101440.02
2017-07-16T16:26:38.022Z,101446.37
2017-07-16T16:29:04.396Z,101439.31
2017-07-16T16:31:30.939Z,101434.73
2017-07-16T16:33:57.322Z,101431.02
2017-07-16T16:36:23.825Z,101432.22
2017-07-16T16:38:50.231Z,101429.20
2017-07-16T16:41:16.988Z,101427.09
2017-07-16T16:43:44.701Z,101423.98
2017-07-16T16:46:11.064Z,101429.27
2017-07-16T16:48:37.769Z,101419.30
2017-07-16T16:51:04.174Z,101419.91
2017-07-16T16:53:30.556Z,101425.64
2017-07-16T16:55:57.001Z,101425.84
2017-07-16T16:58:23.435Z,101422.65
2017-07-16T17:00:50.637Z,101427.55
2017-07-16T17:03:17.014Z,101428.61
2017-07-16T17:05:43.410Z,101427.39
2017-07-16T17:08:09.781Z,101421.14
2017-07-16T17:10:36.156Z,101424.99
2017-07-16T17:13:02.538Z,101423.20
2017-07-16T17:15:28.942Z,101418.83
2017-07-16T17:17:55.337Z,101414.62
2017-07-16T17:20:21.727Z,101418.42
2017-07-16T17:22:48.072Z,101421.58
2017-07-16T17:25:14.434Z,101419.85
2017-07-16T17:27:40.816Z,101418.94
2017-07-16T17:30:07.207Z,101416.95
2017-07-16T17:32:33.647Z,101413.31
2017-07-16T17:35:00.019Z,101419.80
2017-07-16T17:37:26.824Z,101413.84
2017-07-16T17:39:54.060Z,101416.11
2017-07-16T17:42:20.434Z,101409.36
2017-07-16T17:44:46.823Z,101410.25
2017-07-16T17:47:13.206Z,101408.47
2017-07-16T17:49:39.664Z,101406.16
2017-07-16T17:52:06.219Z,101410.13
2017-07-16T17:54:36.104Z,101411.08
2017-07-16T17:57:02.858Z,101415.27
2017-07-16T17:59:31.163Z,101409.33
2017-07-16T18:04:54.347Z,101411.11
2017-07-16T18:07:21.372Z,101414.91
2017-07-16T18:09:52.858Z,101413.03
2017-07-16T18:12:26.426Z,101417.03
2017-07-16T18:14:55.637Z,101415.03
2017-07-16T18:17:22.766Z,101417.00
2017-07-16T18:19:49.150Z,101416.23
2017-07-16T18:22:20.395Z,101412.88
2017-07-16T18:30:40.391Z,101414.85
2017-07-16T18:33:06.852Z,101408.08
2017-07-16T18:35:33.249Z,101413.86
2017-07-16T18:37:59.631Z,101419.75
2017-07-16T18:40:26.210Z,101417.16
2017-07-16T18:42:52.729Z,101420.63
2017-07-16T18:45:26.524Z,101429.23
2017-07-16T18:47:53.625Z,101432.92
2017-07-16T18:50:24.899Z,101432.06
2017-07-16T18:53:04.135Z,101433.05
2017-07-16T18:55:34.861Z,101431.92
2017-07-16T18:58:25.988Z,101437.05
2017-07-16T19:01:03.644Z,101444.55
2017-07-16T19:03:32.595Z,101446.83
2017-07-16T19:05:59.095Z,101446.23
2017-07-16T19:08:26.145Z,101442.19
2017-07-16T19:10:53.609Z,101448.34
2017-07-16T19:13:23.573Z,101442.66
2017-07-16T19:15:50.585Z,101444.95
2017-07-16T19:21:09.921Z,101452.47
2017-07-16T19:35:16.033Z,101457.22
2017-07-16T19:37:42.784Z,101460.33
2017-07-16T19:45:38.452Z,101468.33
2017-07-16T19:48:05.069Z,101468.68
2017-07-16T19:50:33.633Z,101470.38
2017-07-16T19:53:00.231Z,101467.50
2017-07-16T19:55:34.622Z,101475.02
2017-07-16T20:03:28.037Z,101475.77
2017-07-16T20:05:55.974Z,101483.46
2017-07-16T20:08:22.556Z,101479.76
2017-07-16T20:10:49.776Z,101480.67
2017-07-16T20:13:17.997Z,101474.55
2017-07-16T20:15:45.056Z,101471.45
2017-07-16T20:18:11.616Z,101470.81
2017-07-16T20:20:38.331Z,101477.22
2017-07-16T20:23:04.753Z,101480.58
2017-07-16T20:25:31.274Z,101475.77
2017-07-16T20:27:58.542Z,101473.29
2017-07-16T20:30:25.088Z,101465.98
2017-07-16T20:32:52.500Z,101465.70
2017-07-16T20:35:19.073Z,101466.86
2017-07-16T20:37:45.582Z,101464.50
2017-07-16T20:40:12.131Z,101470.84
2017-07-16T20:42:39.257Z,101459.81
2017-07-16T20:45:05.679Z,101464.39
2017-07-16T20:47:32.090Z,101465.95
2017-07-16T20:49:58.556Z,101460.03
2017-07-16T20:52:24.957Z,101462.39
2017-07-16T20:54:51.355Z,101463.38
2017-07-16T20:57:17.776Z,101460.63
2017-07-16T20:59:44.434Z,101454.97
2017-07-16T21:02:10.839Z,101456.38
2017-07-16T21:04:38.923Z,101452.44
2017-07-16T21:07:05.344Z,101454.00
2017-07-16T21:09:31.821Z,101449.22
2017-07-16T21:11:58.200Z,101449.88
2017-07-16T21:14:24.716Z,101453.63
2017-07-16T21:16:51.576Z,101452.99
2017-07-16T21:22:01.418Z,101450.56
2017-07-16T21:24:27.868Z,101452.05
2017-07-16T21:26:54.286Z,101451.73
2017-07-16T21:29:20.675Z,101445.30
2017-07-16T21:31:47.053Z,101453.76
2017-07-16T21:34:13.519Z,101449.55
2017-07-16T21:36:39.927Z,101453.69
2017-07-16T21:39:06.343Z,101453.57
2017-07-16T21:41:32.854Z,101453.58
2017-07-16T21:43:59.233Z,101456.92
2017-07-16T21:46:25.679Z,101453.34
2017-07-16T21:48:52.170Z,101458.16
2017-07-16T21:51:18.681Z,101461.95
2017-07-16T21:53:45.065Z,101454.55
2017-07-16T21:56:11.474Z,101451.93
2017-07-16T21:58:37.908Z,101456.21
2017-07-16T22:01:04.300Z,101451.50
2017-07-16T22:03:30.708Z,101449.77
2017-07-16T22:05:57.094Z,101448.70
2017-07-16T22:08:23.468Z,101445.98
2017-07-16T22:10:49.889Z,101447.19
2017-07-16T22:13:16.277Z,101446.72
2017-07-16T22:15:42.663Z,101446.13
2017-07-16T22:18:09.047Z,101440.19
2017-07-16T22:20:36.149Z,101442.91
2017-07-16T22:23:02.532Z,101435.89
2017-07-16T22:25:28.926Z,101444.78
2017-07-16T22:27:55.308Z,101441.72
2017-07-16T22:30:21.696Z,101439.01
2017-07-16T22:32:48.052Z,101440.27
2017-07-16T22:35:14.436Z,101440.27
2017-07-16T22:37:40.814Z,101439.48
2017-07-16T22:40:07.188Z,101435.44
2017-07-16T22:42:33.566Z,101434.59
2017-07-16T22:44:59.969Z,101444.51
2017-07-16T22:47:26.341Z,101444.25
2017-07-16T22:49:52.748Z,101441.56
2017-07-16T22:52:19.116Z,101434.81
2017-07-16T22:54:45.520Z,101437.45
2017-07-16T22:57:11.912Z,101440.55
2017-07-16T22:59:38.274Z,101436.91
2017-07-16T23:02:04.652Z,101439.47
2017-07-16T23:04:31.042Z,101432.97
2017-07-16T23:06:59.729Z,101439.55
2017-07-16T23:09:26.479Z,101447.73
2017-07-16T23:11:57.146Z,101432.93
2017-07-16T23:14:23.717Z,101440.76
2017-07-16T23:16:50.197Z,101441.94
2017-07-16T23:19:17.641Z,101438.69
2017-07-16T23:21:44.129Z,101433.42
2017-07-16T23:24:10.477Z,101432.85
2017-07-16T23:26:36.881Z,101428.88
2017-07-16T23:29:03.238Z,101423.61
2017-07-16T23:31:29.639Z,101423.55
2017-07-16T23:33:56.073Z,101426.27
2017-07-16T23:36:22.487Z,101434.73
2017-07-16T23:38:48.880Z,101427.66
2017-07-16T23:41:15.239Z,101424.17
2017-07-16T23:43:41.601Z,101422.06
2017-07-16T23:46:07.959Z,101422.31
2017-07-16T23:48:34.322Z,101419.45
2017-07-16T23:51:00.675Z,101419.36
2017-07-16T23:53:27.042Z,101420.13
2017-07-16T23:55:53.393Z,101422.20
2017-07-16T23:58:19.785Z,101422.81
